Time;durP1;ratioP1;P1;durP2;ratioP2;P2;SDS_P1;SDS_P2;PMS_P1;PMS_P2;Temp;Humidity;BMP_temperature;BMP_pressure;BME280_temperature;BME280_humidity;BME280_pressure;Samples;Min_cycle;Max_cycle;Signal;HPM_P1;HPM_P2
2022/01/30 00:00:00;;;;;;;10.75;2.60;;;10.50;99.90;;;;;;5030004;28;20198;-73
2022/01/30 00:02:29;;;;;;;15.27;3.30;;;10.50;99.90;;;;;;5032409;28;20469;-70
2022/01/30 00:04:57;;;;;;;11.18;2.83;;;10.50;99.90;;;;;;5026391;28;20249;-73
2022/01/30 00:07:22;;;;;;;8.93;2.67;;;10.40;99.90;;;;;;5031142;28;20174;-72
2022/01/30 00:09:49;;;;;;;11.05;3.22;;;10.40;99.90;;;;;;5028774;28;20232;-72
2022/01/30 00:12:26;;;;;;;9.88;2.35;;;10.40;99.90;;;;;;5033443;28;20252;-71
2022/01/30 00:14:55;;;;;;;12.25;2.92;;;10.30;99.90;;;;;;5029599;28;20359;-72
2022/01/30 00:17:30;;;;;;;7.43;2.30;;;10.30;99.90;;;;;;5029267;28;20205;-73
2022/01/30 00:20:04;;;;;;;9.93;2.73;;;10.30;99.90;;;;;;5030393;28;20198;-74
2022/01/30 00:25:02;;;;;;;10.63;2.90;;;10.30;99.90;;;;;;5029813;28;20209;-74
2022/01/30 00:27:46;;;;;;;10.50;2.75;;;10.20;99.90;;;;;;5032006;28;20394;-73
2022/01/30 00:30:16;;;;;;;10.93;3.03;;;10.20;99.90;;;;;;5031343;28;20182;-73
2022/01/30 00:32:42;;;;;;;9.77;2.60;;;10.20;99.90;;;;;;5030788;28;20193;-73
2022/01/30 00:35:11;;;;;;;14.50;3.78;;;10.10;99.90;;;;;;5033115;28;20277;-72
2022/01/30 00:37:40;;;;;;;14.27;3.30;;;10.10;99.90;;;;;;5029180;28;20220;-73
2022/01/30 00:40:12;;;;;;;9.30;2.50;;;10.10;99.90;;;;;;5030202;28;20178;-73
2022/01/30 00:42:37;;;;;;;9.32;2.97;;;10.00;99.90;;;;;;5018992;28;20201;-70
2022/01/30 00:45:04;;;;;;;8.05;2.35;;;10.00;99.90;;;;;;5030932;28;20236;-71
2022/01/30 00:47:32;;;;;;;9.38;2.58;;;10.00;99.90;;;;;;5032271;28;20182;-71
2022/01/30 00:50:01;;;;;;;9.07;2.63;;;10.00;99.90;;;;;;5027897;28;20201;-73
2022/01/30 00:52:31;;;;;;;7.67;2.23;;;9.90;99.90;;;;;;5041075;28;20199;-70
2022/01/30 00:54:57;;;;;;;9.47;2.47;;;9.90;99.90;;;;;;5032347;28;20194;-73
2022/01/30 00:57:22;;;;;;;8.37;2.20;;;9.90;99.90;;;;;;5033578;28;20178;-73
2022/01/30 00:59:49;;;;;;;8.52;2.78;;;9.90;99.90;;;;;;5033624;28;20186;-71
2022/01/30 01:02:16;;;;;;;5.87;2.10;;;9.90;99.90;;;;;;5045347;28;20459;-72
2022/01/30 01:04:44;;;;;;;9.73;2.47;;;9.90;99.90;;;;;;5030687;28;20220;-68
2022/01/30 01:07:17;;;;;;;12.00;2.47;;;9.80;99.90;;;;;;5034485;28;20185;-73
2022/01/30 01:09:50;;;;;;;10.10;2.73;;;9.80;99.90;;;;;;5032588;28;20243;-73
2022/01/30 01:21:01;;;;;;;10.00;2.37;;;9.70;99.90;;;;;;5032503;28;20383;-70
2022/01/30 01:23:31;;;;;;;11.27;2.50;;;9.60;99.90;;;;;;5031422;28;20232;-72
2022/01/30 01:26:00;;;;;;;11.03;2.47;;;9.60;99.90;;;;;;5031660;28;20332;-70
2022/01/30 01:28:26;;;;;;;9.03;2.50;;;9.50;99.90;;;;;;5033340;28;20174;-73
2022/01/30 01:30:53;;;;;;;8.50;2.20;;;9.40;99.90;;;;;;5025994;28;20190;-74
2022/01/30 01:33:22;;;;;;;8.87;2.50;;;9.40;99.90;;;;;;5029661;28;20186;-69
2022/01/30 01:35:48;;;;;;;8.10;2.30;;;9.30;99.90;;;;;;5033783;28;20208;-72
2022/01/30 01:38:15;;;;;;;10.00;2.80;;;9.30;99.90;;;;;;5033214;28;20202;-73
2022/01/30 01:40:50;;;;;;;8.23;2.23;;;9.20;99.90;;;;;;5022946;28;20182;-73
2022/01/30 01:43:20;;;;;;;7.37;2.40;;;9.20;99.90;;;;;;5037322;28;20228;-72
2022/01/30 01:45:52;;;;;;;6.93;2.10;;;9.10;99.90;;;;;;5029998;28;20191;-73
2022/01/30 01:48:20;;;;;;;9.50;2.23;;;9.00;99.90;;;;;;5035761;28;20216;-72
2022/01/30 01:51:05;;;;;;;9.83;2.57;;;9.00;99.90;;;;;;5037241;28;20230;-73
2022/01/30 01:53:32;;;;;;;10.27;2.40;;;8.90;99.90;;;;;;5035843;28;20202;-72
2022/01/30 01:56:00;;;;;;;8.57;2.33;;;8.90;99.90;;;;;;5036091;28;20174;-72
2022/01/30 01:58:27;;;;;;;12.03;2.23;;;8.90;99.90;;;;;;5039639;28;20227;-72
2022/01/30 02:00:55;;;;;;;6.17;2.00;;;8.80;99.90;;;;;;5046784;28;20170;-72
2022/01/30 02:03:23;;;;;;;11.37;2.73;;;8.70;99.90;;;;;;5039650;28;20216;-73
2022/01/30 02:05:53;;;;;;;6.17;2.10;;;8.70;99.90;;;;;;5042566;28;20336;-72
2022/01/30 02:10:58;;;;;;;9.13;2.40;;;8.60;99.90;;;;;;5036724;28;20296;-73
2022/01/30 02:24:27;;;;;;;11.80;2.20;;;8.40;99.90;;;;;;5035084;28;20257;-73
2022/01/30 02:26:53;;;;;;;7.50;2.53;;;8.40;99.90;;;;;;5040040;28;20188;-72
2022/01/30 02:29:21;;;;;;;10.07;1.90;;;8.40;99.90;;;;;;5038677;28;20177;-73
2022/01/30 02:31:47;;;;;;;8.47;2.33;;;8.40;99.90;;;;;;5034954;28;20182;-71
2022/01/30 02:34:15;;;;;;;10.00;2.20;;;8.30;99.90;;;;;;5035716;28;20182;-73
2022/01/30 02:36:50;;;;;;;8.40;2.27;;;8.30;99.90;;;;;;5036990;28;20197;-73
2022/01/30 02:39:19;;;;;;;7.83;2.73;;;8.30;99.90;;;;;;5037815;28;20264;-73
2022/01/30 02:41:46;;;;;;;7.20;2.30;;;8.20;99.90;;;;;;5055463;28;20188;-73
2022/01/30 02:44:40;;;;;;;8.30;2.17;;;8.20;99.90;;;;;;5036485;28;20228;-73
2022/01/30 02:47:21;;;;;;;9.43;2.10;;;8.20;99.90;;;;;;5037082;28;20189;-70
2022/01/30 02:50:10;;;;;;;6.53;2.20;;;8.10;99.90;;;;;;5045118;28;20269;-71
2022/01/30 02:52:35;;;;;;;7.47;2.00;;;8.10;99.90;;;;;;5036221;28;20198;-71
2022/01/30 02:55:02;;;;;;;9.57;2.53;;;8.10;99.90;;;;;;5038156;28;20212;-70
2022/01/30 02:57:27;;;;;;;9.73;2.30;;;8.00;99.90;;;;;;5032703;28;20194;-72
2022/01/30 02:59:58;;;;;;;6.77;1.97;;;8.00;99.90;;;;;;5037382;28;20189;-73
2022/01/30 03:02:23;;;;;;;6.63;2.07;;;8.00;99.90;;;;;;5027701;28;20242;-73
2022/01/30 03:04:54;;;;;;;8.40;2.47;;;7.90;99.90;;;;;;5034174;28;20209;-71
2022/01/30 03:07:19;;;;;;;4.83;2.00;;;7.90;99.90;;;;;;5036520;28;20193;-73
2022/01/30 03:09:45;;;;;;;8.30;2.00;;;7.90;99.90;;;;;;5033496;28;20183;-71
2022/01/30 03:12:11;;;;;;;5.53;2.40;;;7.80;99.90;;;;;;5033541;28;20197;-73
2022/01/30 03:14:39;;;;;;;5.97;2.07;;;7.80;99.90;;;;;;5037646;28;20264;-72
2022/01/30 03:17:04;;;;;;;5.67;2.10;;;7.80;99.90;;;;;;5030546;28;20205;-69
2022/01/30 03:19:30;;;;;;;7.63;2.23;;;7.70;99.90;;;;;;5034898;28;20198;-73
2022/01/30 03:21:56;;;;;;;8.53;2.07;;;7.70;99.90;;;;;;5050859;28;20194;-72
2022/01/30 03:24:21;;;;;;;8.57;1.87;;;7.70;99.90;;;;;;5034634;28;20833;-73
2022/01/30 03:26:47;;;;;;;9.93;2.10;;;7.70;99.90;;;;;;5035651;28;20213;-73
2022/01/30 03:29:15;;;;;;;11.43;2.30;;;7.70;99.90;;;;;;5029665;28;20182;-71
2022/01/30 03:31:41;;;;;;;14.00;2.70;;;7.70;99.90;;;;;;5026734;28;20187;-73
2022/01/30 03:34:11;;;;;;;8.73;2.10;;;7.70;99.90;;;;;;5031865;28;20197;-72
2022/01/30 03:36:41;;;;;;;8.83;2.10;;;7.70;99.90;;;;;;5027319;28;20188;-71
2022/01/30 03:39:07;;;;;;;9.30;2.13;;;7.70;99.90;;;;;;5045217;28;20240;-73
2022/01/30 03:41:32;;;;;;;10.73;2.40;;;7.70;99.90;;;;;;5043201;28;20190;-73
2022/01/30 03:43:58;;;;;;;6.73;2.03;;;7.60;99.90;;;;;;5034274;28;20216;-72
2022/01/30 03:46:30;;;;;;;7.73;2.00;;;7.60;99.90;;;;;;5030740;28;20178;-73
2022/01/30 03:48:58;;;;;;;6.53;1.80;;;7.60;99.90;;;;;;5032167;28;20170;-74
2022/01/30 03:51:25;;;;;;;9.63;2.17;;;7.60;99.90;;;;;;5032281;28;20205;-71
2022/01/30 03:53:51;;;;;;;9.67;2.03;;;7.50;99.90;;;;;;5030996;28;20213;-72
2022/01/30 03:56:17;;;;;;;7.63;2.17;;;7.50;99.90;;;;;;5031751;28;20210;-74
2022/01/30 03:58:44;;;;;;;6.70;2.17;;;7.50;99.90;;;;;;5028556;28;20285;-73
2022/01/30 04:01:10;;;;;;;10.07;2.10;;;7.50;99.90;;;;;;5021691;28;20202;-73
2022/01/30 04:03:36;;;;;;;10.70;2.30;;;7.50;99.90;;;;;;5032553;28;20255;-74
2022/01/30 04:06:09;;;;;;;10.07;2.37;;;7.40;99.90;;;;;;5030248;28;20202;-73
2022/01/30 04:08:37;;;;;;;8.20;2.43;;;7.40;99.90;;;;;;5033334;28;20202;-73
2022/01/30 04:11:03;;;;;;;7.73;2.03;;;7.40;99.90;;;;;;5032011;28;20265;-70
2022/01/30 04:13:30;;;;;;;5.37;1.87;;;7.40;99.90;;;;;;5032735;28;20277;-73
2022/01/30 04:15:56;;;;;;;7.90;2.13;;;7.40;99.90;;;;;;5033063;28;20170;-70
2022/01/30 04:18:22;;;;;;;8.30;2.00;;;7.40;99.90;;;;;;5032758;28;20182;-74
2022/01/30 04:20:51;;;;;;;4.70;1.83;;;7.40;99.90;;;;;;5025182;28;20203;-73
2022/01/30 04:23:17;;;;;;;6.07;1.80;;;7.40;99.90;;;;;;5022335;28;20280;-74
2022/01/30 04:25:43;;;;;;;10.00;2.03;;;7.40;99.90;;;;;;5030010;28;20187;-74
2022/01/30 04:28:11;;;;;;;11.73;2.30;;;7.50;99.90;;;;;;5030338;28;20182;-74
2022/01/30 04:30:42;;;;;;;11.10;2.03;;;7.50;99.90;;;;;;5031731;28;20198;-67
2022/01/30 04:33:10;;;;;;;8.07;2.10;;;7.50;99.90;;;;;;5033414;28;20186;-73
2022/01/30 04:35:39;;;;;;;13.57;2.57;;;7.50;99.90;;;;;;5031100;28;20178;-73
2022/01/30 04:59:41;;;;;;;12.07;2.33;;;7.40;99.90;;;;;;5033234;28;20251;-72
2022/01/30 05:02:14;;;;;;;8.27;2.37;;;7.40;99.90;;;;;;5021904;28;20248;-73
2022/01/30 05:09:35;;;;;;;8.67;2.40;;;7.40;99.90;;;;;;5032105;28;20228;-75
2022/01/30 05:12:02;;;;;;;8.83;2.40;;;7.40;99.90;;;;;;5029820;28;20170;-71
2022/01/30 05:14:34;;;;;;;12.73;3.03;;;7.40;99.90;;;;;;5034905;28;20186;-73
2022/01/30 05:17:00;;;;;;;9.43;2.10;;;7.40;99.90;;;;;;5032725;28;20193;-71
2022/01/30 05:19:26;;;;;;;7.43;2.20;;;7.40;99.90;;;;;;5027580;28;20182;-73
2022/01/30 05:21:53;;;;;;;11.47;2.40;;;7.40;99.90;;;;;;5034563;28;20185;-73
2022/01/30 05:24:18;;;;;;;9.90;2.43;;;7.50;99.90;;;;;;5031553;28;20218;-71
2022/01/30 05:26:47;;;;;;;7.67;2.20;;;7.50;99.90;;;;;;5047276;28;20184;-74
2022/01/30 05:29:15;;;;;;;10.10;2.17;;;7.50;99.90;;;;;;5023623;28;20209;-71
2022/01/30 05:31:43;;;;;;;8.67;1.97;;;7.50;99.90;;;;;;5028680;28;20265;-73
2022/01/30 05:34:10;;;;;;;7.17;2.10;;;7.50;99.90;;;;;;5022335;28;20372;-72
2022/01/30 05:36:39;;;;;;;11.63;2.37;;;7.60;99.90;;;;;;5029538;28;20285;-73
2022/01/30 05:39:06;;;;;;;8.13;2.17;;;7.60;99.90;;;;;;5048916;28;20186;-73
2022/01/30 05:41:32;;;;;;;7.80;2.67;;;7.60;99.90;;;;;;5029122;28;20197;-70
2022/01/30 05:44:18;;;;;;;11.27;2.67;;;7.60;99.90;;;;;;5024669;28;20206;-72
2022/01/30 05:46:53;;;;;;;11.33;2.30;;;7.60;99.90;;;;;;5029237;28;20212;-73
2022/01/30 05:49:21;;;;;;;9.67;2.00;;;7.70;99.90;;;;;;5030066;28;20191;-70
2022/01/30 05:51:49;;;;;;;11.13;2.30;;;7.70;99.90;;;;;;5032138;28;20220;-74
2022/01/30 05:54:15;;;;;;;5.27;1.70;;;7.70;99.90;;;;;;5021142;28;20190;-74
2022/01/30 05:56:41;;;;;;;8.57;1.90;;;7.70;99.90;;;;;;5029441;28;20273;-71
2022/01/30 05:59:09;;;;;;;7.27;2.17;;;7.70;99.90;;;;;;5028087;28;20194;-74
2022/01/30 06:01:37;;;;;;;10.53;2.60;;;7.70;99.90;;;;;;5021937;28;20214;-73
2022/01/30 06:04:03;;;;;;;7.70;2.10;;;7.60;99.90;;;;;;5012857;28;20222;-74
2022/01/30 06:06:31;;;;;;;9.30;2.10;;;7.60;99.90;;;;;;5031527;28;20312;-73
2022/01/30 06:09:18;;;;;;;6.90;1.90;;;7.60;99.90;;;;;;5028959;28;20182;-74
2022/01/30 06:11:47;;;;;;;8.37;2.17;;;7.60;99.90;;;;;;5023655;28;20193;-77
2022/01/30 06:14:13;;;;;;;7.07;1.83;;;7.60;99.90;;;;;;5030261;28;20281;-75
2022/01/30 06:16:39;;;;;;;5.70;1.80;;;7.60;99.90;;;;;;5028252;28;20206;-78
2022/01/30 06:19:07;;;;;;;12.30;2.43;;;7.60;99.90;;;;;;5027406;28;20233;-74
2022/01/30 06:21:32;;;;;;;8.50;1.83;;;7.60;99.90;;;;;;5031407;28;20217;-74
2022/01/30 06:24:01;;;;;;;9.97;2.30;;;7.60;99.90;;;;;;5028601;28;20252;-75
2022/01/30 06:26:32;;;;;;;11.47;2.50;;;7.60;99.90;;;;;;5030736;28;20186;-72
2022/01/30 06:28:58;;;;;;;7.97;2.03;;;7.60;99.90;;;;;;5027233;28;20201;-78
2022/01/30 06:31:27;;;;;;;8.43;2.00;;;7.60;99.90;;;;;;5030461;28;20231;-73
2022/01/30 06:33:54;;;;;;;8.47;2.13;;;7.60;99.90;;;;;;5022666;28;20179;-74
2022/01/30 06:36:20;;;;;;;10.53;2.13;;;7.60;99.90;;;;;;5029588;28;20470;-72
2022/01/30 06:38:50;;;;;;;8.80;2.40;;;7.60;99.90;;;;;;5032155;28;20186;-73
2022/01/30 06:41:21;;;;;;;5.83;1.53;;;7.60;99.90;;;;;;5034803;28;20325;-73
2022/01/30 06:43:46;;;;;;;7.70;2.10;;;7.60;99.90;;;;;;5035128;28;20364;-73
2022/01/30 06:46:15;;;;;;;7.17;1.80;;;7.50;99.90;;;;;;5033270;28;20339;-72
2022/01/30 06:48:43;;;;;;;7.37;1.97;;;7.50;99.90;;;;;;5038075;28;20182;-73
2022/01/30 06:51:08;;;;;;;6.50;1.90;;;7.50;99.90;;;;;;5032572;28;20170;-73
2022/01/30 06:53:34;;;;;;;10.37;2.03;;;7.50;99.90;;;;;;5029193;28;20200;-72
2022/01/30 06:56:00;;;;;;;7.87;1.60;;;7.40;99.90;;;;;;5025035;28;20205;-72
2022/01/30 06:58:28;;;;;;;6.67;1.70;;;7.40;99.90;;;;;;5047339;28;20182;-72
2022/01/30 07:00:53;;;;;;;10.60;1.80;;;7.40;99.90;;;;;;5036046;28;20186;-72
2022/01/30 07:03:19;;;;;;;7.07;2.03;;;7.30;99.90;;;;;;5035635;28;20213;-73
2022/01/30 07:05:45;;;;;;;7.27;2.17;;;7.30;99.90;;;;;;5036788;28;20194;-73
2022/01/30 07:08:15;;;;;;;6.07;1.80;;;7.30;99.90;;;;;;5037468;28;20189;-72
2022/01/30 07:10:41;;;;;;;6.47;1.80;;;7.30;99.90;;;;;;5066025;28;20181;-72
2022/01/30 07:13:11;;;;;;;6.20;1.70;;;7.30;99.90;;;;;;5033978;28;20277;-73
2022/01/30 07:15:36;;;;;;;7.10;1.83;;;7.20;99.90;;;;;;5032272;28;20182;-74
2022/01/30 07:18:05;;;;;;;7.40;1.80;;;7.20;99.90;;;;;;5033980;28;20192;-72
2022/01/30 07:20:31;;;;;;;8.40;2.10;;;7.20;99.90;;;;;;5034267;28;20182;-73
2022/01/30 07:22:56;;;;;;;7.47;2.17;;;7.20;99.90;;;;;;5030885;28;20197;-72
2022/01/30 07:25:24;;;;;;;6.67;1.80;;;7.30;99.90;;;;;;5034384;28;20209;-69
2022/01/30 07:27:50;;;;;;;6.30;1.87;;;7.20;99.90;;;;;;5042768;28;20181;-70
2022/01/30 07:30:15;;;;;;;11.27;2.67;;;7.20;99.90;;;;;;5031312;28;20189;-74
2022/01/30 07:32:44;;;;;;;9.93;2.40;;;7.20;99.90;;;;;;5032416;28;20247;-72
2022/01/30 07:35:12;;;;;;;9.53;2.20;;;7.20;99.90;;;;;;5027776;28;20182;-74
2022/01/30 07:37:42;;;;;;;11.50;2.03;;;7.30;99.90;;;;;;5035923;28;20177;-72
2022/01/30 07:40:10;;;;;;;9.60;2.53;;;7.30;99.90;;;;;;5035328;28;20248;-69
2022/01/30 07:42:38;;;;;;;9.27;2.43;;;7.30;99.90;;;;;;5034256;28;20212;-73
2022/01/30 07:45:12;;;;;;;5.00;1.70;;;7.30;99.90;;;;;;5048116;28;20197;-72
2022/01/30 07:47:37;;;;;;;8.50;2.20;;;7.30;99.90;;;;;;5035204;28;20213;-76
2022/01/30 07:50:06;;;;;;;7.97;1.80;;;7.30;99.90;;;;;;5035062;28;20174;-70
2022/01/30 07:52:34;;;;;;;8.37;1.97;;;7.30;99.90;;;;;;5028151;28;20458;-75
2022/01/30 07:55:00;;;;;;;5.90;1.63;;;7.30;99.90;;;;;;5024610;28;20188;-75
2022/01/30 07:57:26;;;;;;;6.30;1.97;;;7.30;99.90;;;;;;5034724;28;20174;-75
2022/01/30 07:59:54;;;;;;;7.73;2.20;;;7.30;99.90;;;;;;5032572;28;20201;-67
2022/01/30 08:02:19;;;;;;;6.70;1.60;;;7.40;99.90;;;;;;5033627;28;20273;-76
2022/01/30 08:04:46;;;;;;;5.27;1.60;;;7.40;99.90;;;;;;5036068;28;20281;-68
2022/01/30 08:07:14;;;;;;;10.33;2.67;;;7.40;99.90;;;;;;5044538;28;20218;-76
2022/01/30 08:09:42;;;;;;;9.67;2.93;;;7.40;99.90;;;;;;5025734;28;20357;-74
2022/01/30 08:12:08;;;;;;;5.57;1.70;;;7.40;99.90;;;;;;5034522;28;20178;-75
2022/01/30 08:14:36;;;;;;;10.00;2.03;;;7.40;99.90;;;;;;5036453;28;20184;-76
2022/01/30 08:17:04;;;;;;;9.40;1.90;;;7.40;99.90;;;;;;5047034;28;20182;-76
2022/01/30 08:19:30;;;;;;;7.43;1.93;;;7.40;99.90;;;;;;5047891;28;20174;-75
2022/01/30 08:21:57;;;;;;;6.33;1.80;;;7.40;99.90;;;;;;5042650;28;20181;-73
2022/01/30 08:24:24;;;;;;;7.27;2.37;;;7.40;99.90;;;;;;5033929;28;20217;-76
2022/01/30 08:26:50;;;;;;;7.87;2.00;;;7.40;99.90;;;;;;5032151;28;20182;-69
2022/01/30 08:29:18;;;;;;;6.87;1.90;;;7.50;99.90;;;;;;5033707;28;20178;-75
2022/01/30 08:31:44;;;;;;;8.00;1.77;;;7.50;99.90;;;;;;5049923;28;20274;-75
2022/01/30 08:34:12;;;;;;;5.77;1.60;;;7.50;99.90;;;;;;5036239;28;20276;-74
2022/01/30 08:36:37;;;;;;;3.47;1.47;;;7.50;99.90;;;;;;5040261;28;20197;-72
2022/01/30 08:39:03;;;;;;;6.53;1.70;;;7.50;99.90;;;;;;5029674;28;20182;-77
2022/01/30 08:41:29;;;;;;;7.87;1.70;;;7.60;99.90;;;;;;5040213;28;20198;-74
2022/01/30 08:43:57;;;;;;;7.03;1.80;;;7.60;99.90;;;;;;5034071;28;20242;-74
2022/01/30 08:46:25;;;;;;;9.80;2.30;;;7.60;99.90;;;;;;5030568;28;20206;-76
2022/01/30 08:48:53;;;;;;;8.13;1.90;;;7.60;99.90;;;;;;5026775;28;20182;-76
2022/01/30 08:51:23;;;;;;;7.90;2.30;;;7.70;99.90;;;;;;5037350;28;20235;-76
2022/01/30 08:53:51;;;;;;;5.30;1.70;;;7.70;99.90;;;;;;5025149;28;20186;-76
2022/01/30 08:56:18;;;;;;;7.10;2.10;;;7.70;99.90;;;;;;5031494;28;20193;-73
2022/01/30 08:58:47;;;;;;;7.17;1.67;;;7.70;99.90;;;;;;5035934;28;20237;-76
2022/01/30 09:01:14;;;;;;;11.17;2.33;;;7.70;99.90;;;;;;5043883;28;20281;-73
2022/01/30 09:03:42;;;;;;;6.90;1.93;;;7.80;99.90;;;;;;5030343;28;20209;-76
2022/01/30 09:06:08;;;;;;;7.63;1.97;;;7.80;99.90;;;;;;5032585;28;20208;-76
2022/01/30 09:08:33;;;;;;;8.00;1.90;;;7.80;99.90;;;;;;5032258;28;20182;-74
2022/01/30 09:10:59;;;;;;;7.27;1.80;;;7.80;99.90;;;;;;5034646;28;20161;-73
2022/01/30 09:13:25;;;;;;;8.17;2.20;;;7.80;99.90;;;;;;5042367;28;20178;-75
2022/01/30 09:15:56;;;;;;;9.20;2.10;;;7.80;99.90;;;;;;5025250;28;20266;-73
2022/01/30 09:18:25;;;;;;;9.57;2.20;;;7.80;99.90;;;;;;5026884;28;20454;-73
2022/01/30 09:20:53;;;;;;;8.53;2.50;;;7.80;99.90;;;;;;5033527;28;20180;-76
2022/01/30 09:23:21;;;;;;;6.67;2.10;;;7.90;99.90;;;;;;5040077;28;20205;-70
2022/01/30 09:25:51;;;;;;;5.90;1.77;;;8.10;99.90;;;;;;5024041;28;20337;-74
2022/01/30 09:28:16;;;;;;;10.03;2.23;;;8.20;99.90;;;;;;5035173;28;20283;-75
2022/01/30 09:30:45;;;;;;;8.53;2.23;;;8.40;99.90;;;;;;5030366;28;20224;-75
2022/01/30 09:33:13;;;;;;;6.33;2.13;;;8.40;99.90;;;;;;5031915;28;20185;-75
2022/01/30 09:35:38;;;;;;;7.93;2.43;;;8.40;99.90;;;;;;5033943;28;20174;-76
2022/01/30 09:38:07;;;;;;;8.00;1.90;;;8.40;99.90;;;;;;5022650;28;20174;-74
2022/01/30 09:40:32;;;;;;;8.70;2.03;;;8.60;99.90;;;;;;5033469;28;20265;-71
2022/01/30 09:43:01;;;;;;;13.53;2.37;;;8.90;99.90;;;;;;5025449;28;20266;-67
2022/01/30 09:45:28;;;;;;;6.93;2.13;;;9.20;99.90;;;;;;5036885;28;20195;-79
2022/01/30 09:47:54;;;;;;;8.70;2.80;;;9.40;99.90;;;;;;5032416;28;20178;-78
2022/01/30 09:50:24;;;;;;;7.80;2.30;;;9.40;99.90;;;;;;5028187;28;20205;-75
2022/01/30 09:52:52;;;;;;;11.60;2.67;;;9.50;99.90;;;;;;5029615;28;20192;-72
2022/01/30 09:55:20;;;;;;;10.40;2.10;;;9.50;99.90;;;;;;5028929;28;20178;-75
2022/01/30 09:57:47;;;;;;;10.83;2.30;;;9.50;99.90;;;;;;5026603;28;20177;-76
2022/01/30 10:00:13;;;;;;;11.10;2.50;;;9.40;99.90;;;;;;5029592;28;20178;-77
2022/01/30 10:02:45;;;;;;;11.67;2.83;;;9.30;99.90;;;;;;5046967;28;20185;-72
2022/01/30 10:05:15;;;;;;;9.63;2.10;;;9.20;99.90;;;;;;5036395;28;20205;-67
2022/01/30 10:07:48;;;;;;;11.60;3.03;;;9.10;99.90;;;;;;5032322;28;20239;-75
2022/01/30 10:10:18;;;;;;;9.60;2.37;;;9.10;99.90;;;;;;5037968;28;20178;-70
2022/01/30 10:13:02;;;;;;;9.23;2.10;;;9.00;99.90;;;;;;5035420;28;20182;-76
2022/01/30 10:15:31;;;;;;;9.97;2.20;;;9.00;99.90;;;;;;5033621;28;20185;-77
2022/01/30 10:17:59;;;;;;;7.97;2.30;;;9.00;99.90;;;;;;5036224;28;20170;-75
2022/01/30 10:20:26;;;;;;;9.27;2.30;;;9.00;99.90;;;;;;5030768;28;20178;-75
2022/01/30 10:23:01;;;;;;;6.63;1.97;;;8.90;99.90;;;;;;5034941;28;20174;-73
2022/01/30 10:25:31;;;;;;;9.73;2.03;;;8.90;99.90;;;;;;5049171;28;20243;-75
2022/01/30 10:28:10;;;;;;;8.47;1.90;;;8.90;99.90;;;;;;5033874;28;20170;-72
2022/01/30 10:30:47;;;;;;;9.53;2.30;;;9.00;99.90;;;;;;5038203;28;20174;-67
2022/01/30 10:33:17;;;;;;;9.27;2.40;;;9.10;99.90;;;;;;5054403;28;20212;-72
2022/01/30 10:35:58;;;;;;;10.67;2.57;;;9.30;99.90;;;;;;5045218;28;20278;-70
2022/01/30 10:38:36;;;;;;;10.20;2.30;;;9.40;99.90;;;;;;5030038;28;20208;-74
2022/01/30 10:41:31;;;;;;;12.43;2.97;;;9.50;99.90;;;;;;5036978;28;20182;-77
2022/01/30 10:44:07;;;;;;;13.63;2.67;;;9.60;99.90;;;;;;5030756;28;20328;-77
2022/01/30 10:46:37;;;;;;;10.07;2.57;;;9.60;99.90;;;;;;5040139;28;20177;-76
2022/01/30 10:49:12;;;;;;;7.88;2.38;;;9.60;99.90;;;;;;5037658;28;20239;-77
2022/01/30 10:51:39;;;;;;;10.93;2.27;;;9.70;99.90;;;;;;5032201;28;20277;-73
2022/01/30 10:54:12;;;;;;;13.87;2.63;;;9.70;99.90;;;;;;5026312;28;22662;-72
2022/01/30 10:56:40;;;;;;;9.37;2.17;;;9.70;99.90;;;;;;5034132;28;20178;-73
2022/01/30 10:59:23;;;;;;;11.30;2.43;;;9.60;99.90;;;;;;5032990;28;20178;-75
2022/01/30 11:01:51;;;;;;;10.93;2.90;;;9.70;99.90;;;;;;5023495;28;20496;-75
2022/01/30 11:04:28;;;;;;;12.25;2.67;;;9.70;99.90;;;;;;5046622;28;20236;-73
2022/01/30 11:06:56;;;;;;;9.30;2.20;;;9.70;99.90;;;;;;5041978;28;20181;-73
2022/01/30 11:09:31;;;;;;;11.10;2.53;;;9.70;99.90;;;;;;5036254;28;20202;-73
2022/01/30 11:12:05;;;;;;;9.45;2.42;;;9.70;99.90;;;;;;5036949;28;20170;-76
2022/01/30 11:14:51;;;;;;;9.43;2.43;;;9.80;99.90;;;;;;5035675;28;20245;-76
2022/01/30 11:17:19;;;;;;;11.83;2.93;;;9.80;99.90;;;;;;5034852;28;20211;-75
2022/01/30 11:19:48;;;;;;;8.60;2.80;;;9.90;99.90;;;;;;5023340;28;20210;-73
2022/01/30 11:22:19;;;;;;;12.30;3.38;;;10.00;99.90;;;;;;5030889;28;20197;-76
2022/01/30 11:24:48;;;;;;;13.88;2.97;;;9.90;99.90;;;;;;5050517;28;20224;-76
2022/01/30 11:27:20;;;;;;;10.10;2.87;;;9.90;99.90;;;;;;5036672;28;20196;-76
2022/01/30 11:29:50;;;;;;;11.13;2.78;;;9.90;99.90;;;;;;5035099;28;20179;-75
2022/01/30 11:32:17;;;;;;;11.47;2.60;;;9.80;99.90;;;;;;5025295;28;20183;-71
2022/01/30 11:34:44;;;;;;;8.57;2.35;;;9.70;99.90;;;;;;5033339;28;20190;-75
2022/01/30 11:37:13;;;;;;;11.07;2.70;;;9.70;99.90;;;;;;5034535;28;20225;-74
2022/01/30 11:39:48;;;;;;;9.13;2.47;;;9.60;99.90;;;;;;5028082;28;20229;-74
2022/01/30 11:42:23;;;;;;;11.03;2.80;;;9.60;99.90;;;;;;5036909;28;20284;-76
2022/01/30 11:45:18;;;;;;;11.33;3.57;;;9.50;99.90;;;;;;5030763;28;20197;-70
2022/01/30 11:47:45;;;;;;;10.67;3.10;;;9.50;99.90;;;;;;5022704;28;20196;-67
2022/01/30 11:50:14;;;;;;;9.77;2.40;;;9.40;99.90;;;;;;5030523;28;20178;-74
2022/01/30 11:52:53;;;;;;;11.03;2.63;;;9.40;99.90;;;;;;5030516;28;20209;-72
2022/01/30 11:55:37;;;;;;;7.47;2.30;;;9.40;99.90;;;;;;5031344;28;20194;-69
2022/01/30 11:58:03;;;;;;;10.87;2.93;;;9.40;99.90;;;;;;5027561;28;20222;-73
2022/01/30 12:00:47;;;;;;;10.57;2.57;;;9.30;99.90;;;;;;5034491;28;20209;-69
2022/01/30 12:03:26;;;;;;;11.40;2.50;;;9.30;99.90;;;;;;5022963;28;20349;-73
2022/01/30 12:05:52;;;;;;;9.90;2.50;;;9.30;99.90;;;;;;5031565;28;20253;-78
2022/01/30 12:09:06;;;;;;;12.40;2.80;;;9.30;99.90;;;;;;5032966;28;20174;-77
2022/01/30 12:11:37;;;;;;;12.77;2.90;;;9.30;99.90;;;;;;5013852;28;20186;-73
2022/01/30 12:14:13;;;;;;;10.60;3.10;;;9.30;99.90;;;;;;5050938;28;20236;-73
2022/01/30 12:16:47;;;;;;;13.90;2.93;;;9.30;99.90;;;;;;5030713;28;20192;-76
2022/01/30 12:19:16;;;;;;;14.50;3.77;;;9.30;99.90;;;;;;5035834;28;20288;-67
2022/01/30 12:21:43;;;;;;;10.70;2.40;;;9.20;99.90;;;;;;5027718;28;21343;-67
2022/01/30 12:24:31;;;;;;;11.23;3.00;;;9.30;99.90;;;;;;5025809;28;20201;-77
2022/01/30 12:27:05;;;;;;;12.40;3.00;;;9.30;99.90;;;;;;5021306;28;20188;-75
2022/01/30 12:29:39;;;;;;;11.50;3.10;;;9.30;99.90;;;;;;5029943;28;20182;-75
2022/01/30 12:32:23;;;;;;;17.10;3.50;;;9.40;99.90;;;;;;5028828;28;20186;-76
2022/01/30 12:34:54;;;;;;;11.45;2.83;;;9.50;99.90;;;;;;5033034;28;20201;-77
2022/01/30 12:37:28;;;;;;;12.83;2.80;;;9.60;99.90;;;;;;5041427;28;20209;-72
2022/01/30 12:39:57;;;;;;;11.45;3.25;;;9.80;99.90;;;;;;5024681;28;20190;-72
2022/01/30 12:42:35;;;;;;;11.50;2.67;;;9.80;99.90;;;;;;5029035;28;20197;-74
2022/01/30 12:45:05;;;;;;;12.68;2.97;;;9.90;99.90;;;;;;5031511;28;20261;-72
2022/01/30 12:47:53;;;;;;;10.47;2.73;;;9.90;99.90;;;;;;5038836;28;20192;-75
2022/01/30 12:50:27;;;;;;;14.67;3.30;;;9.90;99.90;;;;;;5029390;28;20221;-75
2022/01/30 12:52:54;;;;;;;13.80;3.13;;;9.90;99.90;;;;;;5034392;28;20174;-76
2022/01/30 12:55:23;;;;;;;12.23;3.25;;;9.90;99.90;;;;;;5050626;28;20200;-77
2022/01/30 12:57:53;;;;;;;12.63;2.97;;;9.80;99.90;;;;;;5033102;28;20236;-76
2022/01/30 13:00:22;;;;;;;12.70;3.10;;;9.80;99.90;;;;;;5029593;28;20198;-75
2022/01/30 13:02:58;;;;;;;12.63;2.95;;;9.80;99.90;;;;;;5025929;28;20221;-74
2022/01/30 13:05:27;;;;;;;10.60;3.43;;;9.80;99.90;;;;;;5023944;28;20263;-75
2022/01/30 13:07:55;;;;;;;12.93;3.27;;;9.80;99.90;;;;;;5023226;28;20444;-76
2022/01/30 13:10:23;;;;;;;10.97;3.40;;;9.80;99.90;;;;;;5030326;28;20209;-75
2022/01/30 13:12:49;;;;;;;12.48;2.75;;;9.80;99.90;;;;;;5030043;28;20228;-63
2022/01/30 13:15:23;;;;;;;10.00;2.92;;;9.90;99.90;;;;;;5032474;28;20201;-75
2022/01/30 13:17:50;;;;;;;13.00;3.23;;;9.90;99.90;;;;;;5027158;28;20178;-73
2022/01/30 13:20:21;;;;;;;11.77;3.27;;;10.00;99.90;;;;;;5028126;28;20178;-77
2022/01/30 13:22:51;;;;;;;10.93;3.33;;;10.10;99.90;;;;;;5030066;28;20209;-77
2022/01/30 13:25:19;;;;;;;13.50;3.47;;;10.10;99.90;;;;;;5031481;28;20209;-73
2022/01/30 13:27:47;;;;;;;11.23;2.88;;;10.10;99.90;;;;;;5030995;28;20209;-80
2022/01/30 13:30:32;;;;;;;14.27;2.87;;;10.10;99.90;;;;;;5030581;28;20186;-80
2022/01/30 13:32:58;;;;;;;9.63;2.92;;;10.00;99.90;;;;;;5028333;28;20178;-73
2022/01/30 13:35:25;;;;;;;14.93;2.70;;;10.00;99.90;;;;;;5019888;28;20438;-75
2022/01/30 13:37:54;;;;;;;8.70;2.50;;;9.90;99.90;;;;;;5032022;28;20181;-78
2022/01/30 13:40:25;;;;;;;7.70;2.40;;;9.90;99.90;;;;;;5030696;28;20220;-74
2022/01/30 13:43:03;;;;;;;12.90;2.75;;;9.90;99.90;;;;;;5043997;28;20197;-67
2022/01/30 13:48:09;;;;;;;14.68;3.03;;;10.00;99.90;;;;;;5028143;28;20284;-76
2022/01/30 13:50:43;;;;;;;10.27;2.77;;;9.90;99.90;;;;;;5029969;28;20186;-79
2022/01/30 13:53:22;;;;;;;11.48;3.15;;;9.90;99.90;;;;;;5026725;28;20199;-72
2022/01/30 13:56:15;;;;;;;12.18;3.08;;;9.90;99.90;;;;;;5026724;28;20233;-76
2022/01/30 13:58:41;;;;;;;9.25;2.50;;;9.80;99.90;;;;;;5028048;28;20248;-74